createdAt,value
2023-01-09T00:01:22.682Z,14.30
2023-01-09T00:03:49.178Z,14.20
2023-01-09T00:06:15.700Z,14.30
2023-01-09T00:08:42.186Z,14.20
2023-01-09T00:11:08.662Z,14.30
2023-01-09T00:13:35.147Z,14.10
2023-01-09T00:16:01.625Z,14.10
2023-01-09T00:18:28.119Z,14.00
2023-01-09T00:20:54.605Z,14.00
2023-01-09T00:23:21.089Z,14.00
2023-01-09T00:25:47.595Z,13.70
2023-01-09T00:28:14.061Z,14.00
2023-01-09T00:30:40.562Z,14.10
2023-01-09T00:33:11.795Z,13.90
2023-01-09T00:35:38.315Z,13.90
2023-01-09T00:38:04.806Z,13.80
2023-01-09T00:40:31.305Z,13.90
2023-01-09T00:42:57.781Z,13.70
2023-01-09T00:45:29.781Z,13.70
2023-01-09T00:47:56.247Z,13.70
2023-01-09T00:50:22.738Z,13.70
2023-01-09T00:52:49.234Z,13.70
2023-01-09T00:55:15.734Z,13.50
2023-01-09T00:57:42.204Z,13.50
2023-01-09T01:00:08.688Z,13.40
2023-01-09T01:02:35.840Z,13.60
2023-01-09T01:05:02.332Z,13.60
2023-01-09T01:07:28.813Z,13.70
2023-01-09T01:09:55.303Z,13.70
2023-01-09T01:12:21.777Z,13.90
2023-01-09T01:14:53.991Z,13.90
2023-01-09T01:17:20.483Z,13.60
2023-01-09T01:19:46.979Z,13.60
2023-01-09T01:22:13.452Z,13.60
2023-01-09T01:24:39.925Z,13.60
2023-01-09T01:27:06.423Z,13.70
2023-01-09T01:29:32.878Z,13.70
2023-01-09T01:31:59.366Z,13.60
2023-01-09T01:34:25.868Z,13.60
2023-01-09T01:36:52.363Z,13.50
2023-01-09T01:39:18.829Z,13.30
2023-01-09T01:41:45.341Z,13.30
2023-01-09T01:44:11.822Z,13.40
2023-01-09T01:46:38.320Z,13.40
2023-01-09T01:49:04.791Z,13.30
2023-01-09T01:51:31.265Z,13.40
2023-01-09T01:53:57.741Z,13.40
2023-01-09T01:56:24.239Z,13.40
2023-01-09T01:58:53.920Z,13.30
2023-01-09T02:01:20.449Z,13.30
2023-01-09T02:03:46.963Z,13.30
2023-01-09T02:06:13.474Z,13.20
2023-01-09T02:08:39.941Z,13.20
2023-01-09T02:11:06.438Z,13.20
2023-01-09T02:13:32.915Z,13.20
2023-01-09T02:15:59.460Z,13.30
2023-01-09T02:18:25.946Z,13.30
2023-01-09T02:20:52.450Z,13.20
2023-01-09T02:23:18.918Z,13.20
2023-01-09T02:25:47.839Z,13.20
2023-01-09T02:28:14.324Z,13.30
2023-01-09T02:30:40.832Z,13.30
2023-01-09T02:33:07.326Z,13.30
2023-01-09T02:35:33.800Z,13.20
2023-01-09T02:38:00.304Z,13.20
2023-01-09T02:40:26.780Z,13.20
2023-01-09T02:42:53.251Z,13.30
2023-01-09T02:45:19.716Z,13.30
2023-01-09T02:47:46.235Z,13.40
2023-01-09T02:50:12.731Z,13.30
2023-01-09T02:52:39.225Z,13.30
2023-01-09T02:55:05.707Z,13.40
2023-01-09T02:57:35.896Z,13.30
2023-01-09T03:00:02.360Z,13.30
2023-01-09T03:02:28.848Z,13.30
2023-01-09T03:04:55.342Z,13.30
2023-01-09T03:07:21.829Z,13.30
2023-01-09T03:09:48.298Z,13.20
2023-01-09T03:12:14.773Z,13.20
2023-01-09T03:14:41.274Z,13.20
2023-01-09T03:17:11.887Z,13.10
2023-01-09T03:19:38.370Z,13.20
2023-01-09T03:22:04.847Z,13.20
2023-01-09T03:24:36.015Z,13.10
2023-01-09T03:27:02.536Z,13.10
2023-01-09T03:29:29.693Z,13.10
2023-01-09T03:31:56.241Z,13.10
2023-01-09T03:34:22.722Z,13.10
2023-01-09T03:36:49.220Z,13.10
2023-01-09T03:39:17.882Z,13.10
2023-01-09T03:41:44.378Z,13.20
2023-01-09T03:44:10.836Z,13.20
2023-01-09T03:46:37.320Z,13.10
2023-01-09T03:49:03.778Z,13.20
2023-01-09T03:51:30.271Z,13.10
2023-01-09T03:53:56.752Z,13.30
2023-01-09T03:56:23.256Z,13.20
2023-01-09T03:58:54.018Z,13.30
2023-01-09T04:01:20.568Z,13.20
2023-01-09T04:03:47.970Z,13.20
2023-01-09T04:06:14.483Z,13.10
2023-01-09T04:08:48.048Z,13.20
2023-01-09T04:11:14.547Z,13.20
2023-01-09T04:13:41.056Z,13.20
2023-01-09T04:16:12.077Z,13.20
2023-01-09T04:18:38.588Z,13.00
2023-01-09T04:21:05.081Z,13.10
2023-01-09T04:23:31.569Z,13.10
2023-01-09T04:25:58.035Z,13.10
2023-01-09T04:28:24.516Z,13.20
2023-01-09T04:30:50.976Z,13.10
2023-01-09T04:33:17.457Z,13.10
2023-01-09T04:35:43.922Z,13.10
2023-01-09T04:38:10.416Z,13.00
2023-01-09T04:40:36.896Z,13.10
2023-01-09T04:45:53.597Z,13.00
2023-01-09T04:48:20.158Z,12.80
2023-01-09T04:50:47.941Z,13.00
2023-01-09T04:53:14.428Z,13.10
2023-01-09T04:55:40.917Z,13.30
2023-01-09T04:58:07.419Z,13.20
2023-01-09T05:00:33.883Z,13.10
2023-01-09T05:03:00.399Z,13.10
2023-01-09T05:05:26.871Z,13.10
2023-01-09T05:07:53.368Z,13.10
2023-01-09T05:10:19.861Z,13.10
2023-01-09T05:12:46.345Z,13.10
2023-01-09T05:15:12.790Z,13.10
2023-01-09T05:17:39.284Z,13.20
2023-01-09T05:20:05.740Z,13.20
2023-01-09T05:22:32.210Z,13.30
2023-01-09T05:25:00.453Z,13.30
2023-01-09T05:27:27.124Z,13.30
2023-01-09T05:29:53.587Z,13.30
2023-01-09T05:32:20.075Z,13.30
2023-01-09T05:34:46.569Z,13.30
2023-01-09T05:37:13.055Z,13.00
2023-01-09T05:39:39.533Z,13.30
2023-01-09T05:42:06.005Z,13.10
2023-01-09T05:44:32.481Z,13.10
2023-01-09T05:46:59.311Z,13.10
2023-01-09T05:49:26.589Z,13.00
2023-01-09T05:51:53.071Z,13.10
2023-01-09T05:54:19.555Z,13.10
2023-01-09T05:56:46.050Z,13.10
2023-01-09T05:59:12.542Z,13.10
2023-01-09T06:01:39.023Z,13.10
2023-01-09T06:04:05.504Z,13.00
2023-01-09T06:06:32.007Z,13.00
2023-01-09T06:08:58.514Z,13.00
2023-01-09T06:11:25.003Z,13.00
2023-01-09T06:13:51.495Z,13.00
2023-01-09T06:16:18.025Z,12.80
2023-01-09T06:18:44.525Z,12.70
2023-01-09T06:21:11.001Z,12.80
2023-01-09T06:23:37.494Z,12.70
2023-01-09T06:26:03.959Z,12.80
2023-01-09T06:28:30.441Z,12.80
2023-01-09T06:30:56.968Z,12.90
2023-01-09T06:33:23.442Z,12.90
2023-01-09T06:35:49.940Z,13.00
2023-01-09T06:38:16.443Z,12.80
2023-01-09T06:40:42.956Z,12.70
2023-01-09T06:43:09.453Z,12.60
2023-01-09T06:45:36.161Z,12.70
2023-01-09T06:48:02.642Z,12.60
2023-01-09T06:50:29.166Z,12.70
2023-01-09T06:52:55.645Z,12.60
2023-01-09T06:55:22.148Z,12.60
2023-01-09T06:57:48.630Z,12.60
2023-01-09T07:00:15.128Z,12.80
2023-01-09T07:02:41.613Z,12.80
2023-01-09T07:05:08.129Z,12.70
2023-01-09T07:07:36.075Z,12.90
2023-01-09T07:10:02.612Z,12.80
2023-01-09T07:12:29.081Z,12.70
2023-01-09T07:15:00.290Z,12.80
2023-01-09T07:17:26.784Z,12.70
2023-01-09T07:19:53.275Z,12.70
2023-01-09T07:22:19.777Z,12.60
2023-01-09T07:24:46.261Z,12.80
2023-01-09T07:27:12.740Z,12.80
2023-01-09T07:29:39.229Z,12.80
2023-01-09T07:32:05.719Z,12.70
2023-01-09T07:34:42.260Z,12.80
2023-01-09T07:37:08.749Z,12.80
2023-01-09T07:39:35.230Z,12.80
2023-01-09T07:42:01.729Z,12.80
2023-01-09T07:44:28.196Z,12.80
2023-01-09T07:46:54.659Z,12.80
2023-01-09T07:49:21.137Z,12.70
2023-01-09T07:51:47.616Z,12.80
2023-01-09T07:54:14.088Z,12.60
2023-01-09T07:56:40.582Z,12.80
2023-01-09T07:59:07.067Z,12.90
2023-01-09T08:01:33.649Z,13.00
2023-01-09T08:04:00.156Z,12.90
2023-01-09T08:06:26.628Z,12.90
2023-01-09T08:08:53.100Z,12.80
2023-01-09T08:11:19.594Z,12.90
2023-01-09T08:13:46.079Z,13.00
2023-01-09T08:16:12.616Z,13.10
2023-01-09T08:18:39.138Z,13.00
2023-01-09T08:21:05.645Z,12.90
2023-01-09T08:23:36.329Z,13.00
2023-01-09T08:26:02.818Z,12.90
2023-01-09T08:28:30.104Z,13.00
2023-01-09T08:30:56.582Z,13.00
2023-01-09T08:33:23.069Z,13.00
2023-01-09T08:38:39.706Z,12.90
2023-01-09T08:41:06.194Z,12.80
2023-01-09T08:43:32.703Z,12.80
2023-01-09T08:45:59.249Z,12.90
2023-01-09T08:48:25.742Z,13.00
2023-01-09T08:50:54.213Z,13.10
2023-01-09T08:53:20.757Z,13.00
2023-01-09T08:55:47.272Z,13.10
2023-01-09T08:58:13.742Z,12.90
2023-01-09T09:00:42.168Z,13.10
2023-01-09T09:03:08.686Z,13.10
2023-01-09T09:05:35.177Z,13.10
2023-01-09T09:08:06.340Z,13.00
2023-01-09T09:10:32.862Z,13.00
2023-01-09T09:13:00.183Z,13.00
2023-01-09T09:15:26.743Z,12.90
2023-01-09T09:17:53.217Z,13.10
2023-01-09T09:20:19.690Z,12.90
2023-01-09T09:22:46.200Z,12.70
2023-01-09T09:25:12.693Z,12.80
2023-01-09T09:27:39.210Z,12.70
2023-01-09T09:30:05.694Z,12.70
2023-01-09T09:32:32.188Z,12.70
2023-01-09T09:34:58.675Z,12.80
2023-01-09T09:37:25.167Z,12.70
2023-01-09T09:39:51.667Z,12.80
2023-01-09T09:42:18.147Z,12.70
2023-01-09T09:44:52.712Z,12.70
2023-01-09T09:47:19.748Z,13.00
2023-01-09T09:49:46.225Z,12.90
2023-01-09T09:52:12.721Z,12.90
2023-01-09T09:54:39.211Z,12.90
2023-01-09T09:57:05.679Z,12.80
2023-01-09T09:59:32.205Z,12.70
2023-01-09T10:02:00.263Z,12.60
2023-01-09T10:04:26.765Z,12.70
2023-01-09T10:06:53.228Z,12.70
2023-01-09T10:09:19.708Z,12.60
2023-01-09T10:11:46.303Z,12.70
2023-01-09T10:14:23.325Z,12.60
2023-01-09T10:16:50.487Z,12.60
2023-01-09T10:19:16.961Z,12.50
2023-01-09T10:21:43.452Z,12.60
2023-01-09T10:24:09.958Z,12.60
2023-01-09T10:26:42.450Z,12.70
2023-01-09T10:29:08.972Z,12.60
2023-01-09T10:31:35.562Z,12.60
2023-01-09T10:34:02.055Z,12.60
2023-01-09T10:36:28.559Z,12.70
2023-01-09T10:38:55.072Z,12.70
2023-01-09T10:41:21.532Z,12.60
2023-01-09T10:43:48.034Z,12.60
2023-01-09T10:46:14.531Z,12.60
2023-01-09T10:48:41.051Z,12.50
2023-01-09T10:51:08.613Z,12.50
2023-01-09T10:53:35.098Z,12.60
2023-01-09T10:56:01.572Z,12.60
2023-01-09T10:58:28.067Z,12.60
2023-01-09T11:00:54.567Z,12.60
2023-01-09T11:03:21.122Z,12.70
2023-01-09T11:05:47.671Z,12.80
2023-01-09T11:08:14.159Z,12.80
2023-01-09T11:10:40.636Z,12.60
2023-01-09T11:13:07.153Z,12.60
2023-01-09T11:15:33.622Z,12.60
2023-01-09T11:18:00.140Z,12.70
2023-01-09T11:20:28.493Z,12.60
2023-01-09T11:22:55.011Z,12.70
2023-01-09T11:25:21.484Z,12.70
2023-01-09T11:27:48.016Z,12.70
2023-01-09T11:30:14.519Z,12.70
2023-01-09T11:32:41.010Z,12.60
2023-01-09T11:35:07.480Z,12.60
2023-01-09T11:37:33.962Z,12.60
2023-01-09T11:40:00.457Z,12.50
2023-01-09T11:42:30.430Z,12.50
2023-01-09T11:44:56.914Z,12.50
2023-01-09T11:47:23.488Z,12.40
2023-01-09T11:49:51.376Z,12.40
2023-01-09T11:52:17.954Z,12.40
2023-01-09T11:54:44.453Z,12.30
2023-01-09T11:57:10.916Z,12.40
2023-01-09T11:59:37.412Z,12.50
2023-01-09T12:02:03.894Z,12.70
2023-01-09T12:04:30.391Z,12.70
2023-01-09T12:06:56.864Z,12.50
2023-01-09T12:09:23.373Z,12.50
2023-01-09T12:11:49.857Z,12.50
2023-01-09T12:14:16.369Z,12.40
2023-01-09T12:16:42.861Z,12.40
2023-01-09T12:19:09.365Z,12.40
2023-01-09T12:21:35.875Z,12.50
2023-01-09T12:24:02.411Z,12.50
2023-01-09T12:26:30.306Z,12.50
2023-01-09T12:28:56.814Z,12.50
2023-01-09T12:31:23.256Z,12.50
2023-01-09T12:33:49.755Z,12.60
2023-01-09T12:36:16.253Z,12.70
2023-01-09T12:38:42.741Z,12.60
2023-01-09T12:41:09.245Z,12.50
2023-01-09T12:43:35.729Z,12.50
2023-01-09T12:46:02.279Z,12.50
2023-01-09T12:48:30.322Z,12.50
2023-01-09T12:50:56.808Z,12.60
2023-01-09T12:53:23.289Z,12.50
2023-01-09T12:55:49.779Z,12.40
2023-01-09T12:58:16.259Z,12.50
2023-01-09T13:00:42.764Z,12.40
2023-01-09T13:03:13.260Z,12.40
2023-01-09T13:05:39.859Z,12.50
2023-01-09T13:08:06.335Z,12.50
2023-01-09T13:10:32.826Z,12.50
2023-01-09T13:12:59.313Z,12.50
2023-01-09T13:15:25.806Z,12.50
2023-01-09T13:17:52.300Z,12.50
2023-01-09T13:20:18.795Z,12.50
2023-01-09T13:22:45.281Z,12.50
2023-01-09T13:25:11.763Z,12.40
2023-01-09T13:27:38.238Z,12.40
2023-01-09T13:30:04.747Z,12.40
2023-01-09T13:32:31.253Z,12.50
2023-01-09T13:34:57.754Z,12.50
2023-01-09T13:37:24.240Z,12.40
2023-01-09T13:39:50.756Z,12.40
2023-01-09T13:42:17.252Z,12.40
2023-01-09T13:44:43.775Z,12.40
2023-01-09T13:47:10.268Z,12.50
2023-01-09T13:49:36.762Z,12.60
2023-01-09T13:52:03.227Z,12.60
2023-01-09T13:54:29.749Z,12.70
2023-01-09T13:56:56.232Z,12.60
2023-01-09T13:59:30.455Z,12.60
2023-01-09T14:01:56.964Z,12.70
2023-01-09T14:04:23.460Z,12.60
2023-01-09T14:06:49.956Z,12.60
2023-01-09T14:09:16.441Z,12.50
2023-01-09T14:11:42.928Z,12.50
2023-01-09T14:14:09.408Z,12.50
2023-01-09T14:16:35.958Z,12.50
2023-01-09T14:19:02.490Z,12.50
2023-01-09T14:21:28.974Z,12.40
2023-01-09T14:23:58.571Z,12.40
2023-01-09T14:26:26.854Z,12.40
2023-01-09T14:28:53.350Z,12.40
2023-01-09T14:31:19.888Z,12.50
2023-01-09T14:33:46.396Z,12.60
2023-01-09T14:36:12.881Z,12.60
2023-01-09T14:38:42.469Z,12.60
2023-01-09T14:41:08.944Z,12.60
2023-01-09T14:43:35.419Z,12.50
2023-01-09T14:46:01.944Z,12.60
2023-01-09T14:48:28.459Z,12.50
2023-01-09T14:50:54.956Z,12.40
2023-01-09T14:53:21.428Z,12.40
2023-01-09T14:55:47.944Z,12.50
2023-01-09T14:58:14.424Z,12.60
2023-01-09T15:00:40.929Z,12.60
2023-01-09T15:03:07.400Z,12.60
2023-01-09T15:05:33.906Z,12.70
2023-01-09T15:08:00.404Z,12.60
2023-01-09T15:10:26.942Z,12.70
2023-01-09T15:12:53.425Z,12.60
2023-01-09T15:15:19.939Z,12.60
2023-01-09T15:17:46.471Z,12.60
2023-01-09T15:20:12.987Z,12.60
2023-01-09T15:22:39.481Z,12.60
2023-01-09T15:25:05.952Z,12.60
2023-01-09T15:27:32.448Z,12.70
2023-01-09T15:29:58.930Z,12.70
2023-01-09T15:32:25.448Z,12.70
2023-01-09T15:34:51.940Z,12.70
2023-01-09T15:37:18.425Z,12.60
2023-01-09T15:39:44.893Z,12.60
2023-01-09T15:42:11.387Z,12.60
2023-01-09T15:44:42.561Z,12.60
2023-01-09T15:47:09.055Z,12.60
2023-01-09T15:49:35.550Z,12.60
2023-01-09T15:52:02.069Z,12.60
2023-01-09T15:54:28.598Z,12.60
2023-01-09T15:56:55.079Z,12.60
2023-01-09T15:59:21.560Z,12.70
2023-01-09T16:01:48.063Z,12.60
2023-01-09T16:04:18.603Z,12.60
2023-01-09T16:06:45.092Z,12.70
2023-01-09T16:09:11.642Z,12.70
2023-01-09T16:11:38.137Z,12.60
2023-01-09T16:14:04.617Z,12.60
2023-01-09T16:16:31.177Z,12.70
2023-01-09T16:18:57.696Z,12.70
2023-01-09T16:21:24.220Z,12.70
2023-01-09T16:23:50.720Z,12.70
2023-01-09T16:26:17.214Z,12.60
2023-01-09T16:28:43.680Z,12.60
2023-01-09T16:31:10.190Z,12.60
2023-01-09T16:33:36.698Z,12.60
2023-01-09T16:36:06.560Z,12.50
2023-01-09T16:38:42.589Z,12.60
2023-01-09T16:41:09.114Z,12.40
2023-01-09T16:43:35.613Z,12.60
2023-01-09T16:46:02.154Z,12.60
2023-01-09T16:48:28.639Z,12.60
2023-01-09T16:50:55.154Z,12.50
2023-01-09T16:53:21.652Z,12.40
2023-01-09T16:55:48.183Z,12.50
2023-01-09T16:58:15.974Z,12.60
2023-01-09T17:00:43.556Z,12.70
2023-01-09T17:03:10.051Z,12.60
2023-01-09T17:05:36.570Z,12.60
2023-01-09T17:08:03.037Z,12.60
2023-01-09T17:10:29.551Z,12.60
2023-01-09T17:12:56.018Z,12.60
2023-01-09T17:15:22.514Z,12.50
2023-01-09T17:17:48.995Z,12.50
2023-01-09T17:20:15.503Z,12.40
2023-01-09T17:22:42.548Z,12.50
2023-01-09T17:25:09.181Z,12.40
2023-01-09T17:27:36.537Z,12.50
2023-01-09T17:30:18.446Z,12.40
2023-01-09T17:32:45.728Z,12.50
2023-01-09T17:35:12.221Z,12.40
2023-01-09T17:37:42.667Z,12.50
2023-01-09T17:40:09.179Z,12.60
2023-01-09T17:42:35.690Z,12.50
2023-01-09T17:45:02.173Z,12.60
2023-01-09T17:47:28.677Z,12.40
2023-01-09T17:49:55.176Z,12.40
2023-01-09T17:52:21.679Z,12.50
2023-01-09T17:54:48.175Z,12.50
2023-01-09T17:57:14.663Z,12.50
2023-01-09T17:59:41.135Z,12.50
2023-01-09T18:02:07.640Z,12.50
2023-01-09T18:04:34.141Z,12.40
2023-01-09T18:07:00.635Z,12.40
2023-01-09T18:09:27.127Z,12.40
2023-01-09T18:11:53.625Z,12.40
2023-01-09T18:14:20.128Z,12.50
2023-01-09T18:16:46.659Z,12.40
2023-01-09T18:19:13.197Z,12.40
2023-01-09T18:21:42.633Z,12.40
2023-01-09T18:24:09.118Z,12.60
2023-01-09T18:26:35.612Z,12.60
2023-01-09T18:29:02.099Z,12.70
2023-01-09T18:31:28.660Z,12.60
2023-01-09T18:33:55.155Z,12.60
2023-01-09T18:36:21.644Z,12.70
2023-01-09T18:39:00.780Z,12.50
2023-01-09T18:41:27.333Z,12.50
2023-01-09T18:43:53.848Z,12.50
2023-01-09T18:46:20.337Z,12.50
2023-01-09T18:48:46.827Z,12.60
2023-01-09T18:51:13.323Z,12.70
2023-01-09T18:53:39.797Z,12.50
2023-01-09T18:56:06.285Z,12.40
2023-01-09T18:58:32.766Z,12.50
2023-01-09T19:00:59.296Z,12.40
2023-01-09T19:03:25.795Z,12.50
2023-01-09T19:05:52.301Z,12.50
2023-01-09T19:08:21.400Z,12.50
2023-01-09T19:10:48.039Z,12.50
2023-01-09T19:13:14.513Z,12.50
2023-01-09T19:15:41.020Z,12.60
2023-01-09T19:18:07.494Z,12.60
2023-01-09T19:20:33.980Z,12.50
2023-01-09T19:23:00.480Z,12.60
2023-01-09T19:25:26.965Z,12.50
2023-01-09T19:27:53.456Z,12.50
2023-01-09T19:30:19.940Z,12.50
2023-01-09T19:32:46.428Z,12.60
2023-01-09T19:35:12.907Z,12.50
2023-01-09T19:37:39.387Z,12.40
2023-01-09T19:40:05.872Z,12.50
2023-01-09T19:42:32.350Z,12.60
2023-01-09T19:44:58.831Z,12.60
2023-01-09T19:47:25.310Z,12.60
2023-01-09T19:49:51.780Z,12.50
2023-01-09T19:52:18.273Z,12.40
2023-01-09T19:54:44.757Z,12.40
2023-01-09T19:57:11.248Z,12.40
2023-01-09T19:59:37.705Z,12.40
2023-01-09T20:02:04.256Z,12.30
2023-01-09T20:04:30.775Z,12.40
2023-01-09T20:06:57.273Z,12.50
2023-01-09T20:09:30.908Z,12.40
2023-01-09T20:11:57.398Z,12.50
2023-01-09T20:14:24.684Z,12.40
2023-01-09T20:16:51.225Z,12.40
2023-01-09T20:19:17.818Z,12.40
2023-01-09T20:21:44.325Z,12.40
2023-01-09T20:24:10.799Z,12.40
2023-01-09T20:26:37.303Z,12.40
2023-01-09T20:29:03.779Z,12.40
2023-01-09T20:31:30.303Z,12.40
2023-01-09T20:33:56.793Z,12.30
2023-01-09T20:36:23.259Z,12.40
2023-01-09T20:38:49.720Z,12.40
2023-01-09T20:41:16.175Z,12.30
2023-01-09T20:43:42.638Z,12.30
2023-01-09T20:46:12.852Z,12.30
2023-01-09T20:48:39.366Z,12.30
2023-01-09T20:51:05.854Z,12.20
2023-01-09T20:53:32.340Z,12.30
2023-01-09T20:55:58.841Z,12.30
2023-01-09T20:58:25.963Z,12.30
2023-01-09T21:00:53.489Z,12.20
2023-01-09T21:03:20.061Z,12.20
2023-01-09T21:05:46.522Z,12.30
2023-01-09T21:08:13.012Z,12.20
2023-01-09T21:10:42.930Z,12.00
2023-01-09T21:13:09.404Z,12.30
2023-01-09T21:15:35.879Z,12.40
2023-01-09T21:18:02.375Z,12.30
2023-01-09T21:20:28.845Z,12.30
2023-01-09T21:22:55.353Z,12.20
2023-01-09T21:25:21.831Z,12.10
2023-01-09T21:27:48.335Z,12.10
2023-01-09T21:30:18.959Z,12.10
2023-01-09T21:32:45.481Z,12.10
2023-01-09T21:35:11.961Z,12.10
2023-01-09T21:37:42.920Z,12.10
2023-01-09T21:40:09.417Z,12.00
2023-01-09T21:42:35.870Z,12.10
2023-01-09T21:45:02.362Z,12.00
2023-01-09T21:47:28.862Z,12.10
2023-01-09T21:49:55.363Z,12.20
2023-01-09T21:52:21.850Z,12.20
2023-01-09T21:54:48.331Z,12.10
2023-01-09T21:57:14.856Z,12.10
2023-01-09T21:59:41.332Z,12.00
2023-01-09T22:02:13.004Z,12.00
2023-01-09T22:04:39.512Z,12.00
2023-01-09T22:07:06.006Z,12.10
2023-01-09T22:09:32.497Z,12.10
2023-01-09T22:11:58.971Z,12.10
2023-01-09T22:14:25.463Z,12.00
2023-01-09T22:16:51.956Z,12.10
2023-01-09T22:19:18.455Z,12.10
2023-01-09T22:21:44.948Z,12.10
2023-01-09T22:24:11.444Z,12.20
2023-01-09T22:26:37.914Z,12.30
2023-01-09T22:29:04.427Z,12.20
2023-01-09T22:31:30.939Z,12.30
2023-01-09T22:33:57.445Z,12.30
2023-01-09T22:36:23.916Z,12.30
2023-01-09T22:38:50.423Z,12.10
2023-01-09T22:41:16.896Z,12.20
2023-01-09T22:43:43.375Z,12.30
2023-01-09T22:46:11.647Z,12.30
2023-01-09T22:48:38.418Z,12.20
2023-01-09T22:51:04.898Z,12.20
2023-01-09T22:53:31.372Z,12.20
2023-01-09T22:55:57.861Z,12.30
2023-01-09T22:58:24.338Z,12.30
2023-01-09T23:00:50.811Z,12.30
2023-01-09T23:03:17.310Z,12.20
2023-01-09T23:05:43.779Z,12.20
2023-01-09T23:08:12.829Z,12.20
2023-01-09T23:10:39.305Z,12.10
2023-01-09T23:13:05.786Z,12.10
2023-01-09T23:15:32.282Z,12.20
2023-01-09T23:17:58.761Z,12.20
2023-01-09T23:20:25.250Z,12.20
2023-01-09T23:22:54.955Z,12.30
2023-01-09T23:25:21.436Z,12.20
2023-01-09T23:27:47.928Z,12.20
2023-01-09T23:30:14.415Z,12.20
2023-01-09T23:32:40.881Z,12.30
2023-01-09T23:35:07.357Z,12.30
2023-01-09T23:37:33.830Z,12.30
2023-01-09T23:40:00.319Z,12.10
2023-01-09T23:42:30.970Z,12.20
2023-01-09T23:44:57.448Z,12.10
2023-01-09T23:47:24.897Z,12.10
2023-01-09T23:49:51.375Z,12.20
2023-01-09T23:52:17.850Z,12.20
2023-01-09T23:54:44.331Z,12.20
2023-01-09T23:57:10.803Z,12.20
2023-01-09T23:59:37.331Z,12.10
